createdAt,value
2022-12-01T00:00:24.989Z,102658.38
2022-12-01T00:03:33.688Z,102663.56
2022-12-01T00:06:38.318Z,102654.94
2022-12-01T00:10:01.181Z,102654.03
2022-12-01T00:13:06.795Z,102656.63
2022-12-01T00:16:17.226Z,102656.63
2022-12-01T00:19:26.345Z,102649.72
2022-12-01T00:22:31.378Z,102648.81
2022-12-01T00:25:35.822Z,102646.22
2022-12-01T00:28:40.451Z,102645.34
2022-12-01T00:31:44.838Z,102650.56
2022-12-01T00:34:49.104Z,102649.69
2022-12-01T00:37:54.430Z,102654.03
2022-12-01T00:40:58.674Z,102650.50
2022-12-01T00:44:03.146Z,102651.44
2022-12-01T00:47:07.562Z,102660.06
2022-12-01T00:50:12.264Z,102661.81
2022-12-01T00:53:16.775Z,102668.75
2022-12-01T00:56:21.357Z,102663.53
2022-12-01T00:59:26.324Z,102670.50
2022-12-01T01:02:30.874Z,102666.13
2022-12-01T01:05:41.569Z,102673.94
2022-12-01T01:08:46.166Z,102670.50
2022-12-01T01:11:50.665Z,102675.66
2022-12-01T01:14:55.194Z,102677.41
2022-12-01T01:17:59.700Z,102681.72
2022-12-01T01:21:08.825Z,102677.41
2022-12-01T01:24:13.215Z,102687.81
2022-12-01T01:27:17.843Z,102683.50
2022-12-01T01:30:22.307Z,102686.13
2022-12-01T01:33:26.635Z,102687.88
2022-12-01T01:36:31.113Z,102690.47
2022-12-01T01:39:35.765Z,102692.16
2022-12-01T01:42:40.247Z,102691.34
2022-12-01T01:45:45.078Z,102690.44
2022-12-01T01:49:01.632Z,102691.31
2022-12-01T01:52:06.171Z,102696.47
2022-12-01T01:55:11.707Z,102698.28
2022-12-01T01:58:16.475Z,102693.94
2022-12-01T02:01:22.478Z,102701.72
2022-12-01T02:04:29.289Z,102693.03
2022-12-01T02:07:33.948Z,102694.78
2022-12-01T02:10:59.834Z,102689.53
2022-12-01T02:14:18.044Z,102691.28
2022-12-01T02:17:41.538Z,102693.03
2022-12-01T02:21:42.079Z,102695.63
2022-12-01T02:24:59.737Z,102695.66
2022-12-01T02:28:24.149Z,102701.72
2022-12-01T02:32:00.406Z,102699.09
2022-12-01T02:35:23.371Z,102694.75
2022-12-01T02:39:23.635Z,102689.53
2022-12-01T02:42:53.459Z,102698.22
2022-12-01T02:46:21.911Z,102686.06
2022-12-01T02:49:42.077Z,102686.97
2022-12-01T02:52:46.825Z,102684.34
2022-12-01T02:55:58.690Z,102680.00
2022-12-01T02:59:11.293Z,102679.13
2022-12-01T03:03:00.730Z,102680.84
2022-12-01T03:06:51.544Z,102674.75
2022-12-01T03:10:31.500Z,102680.88
2022-12-01T03:13:59.207Z,102678.22
2022-12-01T03:17:20.320Z,102671.28
2022-12-01T03:20:50.488Z,102675.63
2022-12-01T03:24:19.378Z,102681.69
2022-12-01T03:27:29.976Z,102689.47
2022-12-01T03:30:37.670Z,102688.66
2022-12-01T03:33:57.480Z,102692.94
2022-12-01T03:37:14.446Z,102687.72
2022-12-01T03:40:25.587Z,102691.19
2022-12-01T03:43:36.077Z,102682.50
2022-12-01T03:47:06.329Z,102686.88
2022-12-01T03:50:14.092Z,102686.91
2022-12-01T03:53:27.431Z,102684.34
2022-12-01T03:56:55.110Z,102687.75
2022-12-01T03:59:59.911Z,102677.31
2022-12-01T04:03:05.700Z,102686.00
2022-12-01T04:06:10.564Z,102680.81
2022-12-01T04:09:15.204Z,102686.81
2022-12-01T04:12:30.983Z,102684.22
2022-12-01T04:15:35.306Z,102680.81
2022-12-01T04:18:39.915Z,102685.13
2022-12-01T04:21:44.517Z,102684.28
2022-12-01T04:24:48.911Z,102690.31
2022-12-01T04:27:53.211Z,102683.41
2022-12-01T04:30:57.561Z,102688.59
2022-12-01T04:34:02.351Z,102687.72
2022-12-01T04:37:08.055Z,102696.34
2022-12-01T04:40:13.210Z,102698.91
2022-12-01T04:43:18.109Z,102704.97
2022-12-01T04:46:23.982Z,102707.56
2022-12-01T04:49:28.554Z,102705.00
2022-12-01T04:52:36.429Z,102710.19
2022-12-01T04:55:41.231Z,102707.59
2022-12-01T04:58:45.674Z,102706.72
2022-12-01T05:01:50.802Z,102712.81
2022-12-01T05:04:55.073Z,102713.69
2022-12-01T05:07:59.722Z,102718.00
2022-12-01T05:11:07.538Z,102723.22
2022-12-01T05:14:12.189Z,102718.84
2022-12-01T05:17:16.930Z,102729.28
2022-12-01T05:20:43.590Z,102722.28
2022-12-01T05:23:47.866Z,102730.94
2022-12-01T05:26:52.477Z,102724.06
2022-12-01T05:29:57.001Z,102731.00
2022-12-01T05:33:01.542Z,102730.09
2022-12-01T05:36:06.107Z,102729.31
2022-12-01T05:39:10.447Z,102723.22
2022-12-01T05:42:15.009Z,102725.81
2022-12-01T05:45:19.528Z,102732.78
2022-12-01T05:48:24.567Z,102732.75
2022-12-01T05:51:28.902Z,102724.03
2022-12-01T05:54:33.521Z,102719.66
2022-12-01T05:57:38.345Z,102721.38
2022-12-01T06:00:46.022Z,102723.94
2022-12-01T06:03:52.421Z,102731.75
2022-12-01T06:06:57.171Z,102726.53
2022-12-01T06:10:02.490Z,102722.19
2022-12-01T06:13:06.880Z,102727.44
2022-12-01T06:16:11.299Z,102729.13
2022-12-01T06:19:15.724Z,102736.09
2022-12-01T06:22:20.098Z,102743.03
2022-12-01T06:25:24.492Z,102743.88
2022-12-01T06:28:30.128Z,102742.13
2022-12-01T06:31:34.507Z,102751.66
2022-12-01T06:34:38.830Z,102750.75
2022-12-01T06:37:43.267Z,102749.94
2022-12-01T06:40:47.900Z,102751.63
2022-12-01T06:43:52.149Z,102754.25
2022-12-01T06:46:57.734Z,102752.50
2022-12-01T06:50:03.249Z,102750.75
2022-12-01T06:53:07.405Z,102753.38
2022-12-01T06:56:11.752Z,102759.44
2022-12-01T06:59:16.946Z,102763.78
2022-12-01T07:02:22.286Z,102763.72
2022-12-01T07:05:27.194Z,102764.66
2022-12-01T07:08:32.577Z,102770.69
2022-12-01T07:11:37.098Z,102772.41
2022-12-01T07:14:42.509Z,102768.16
2022-12-01T07:17:47.260Z,102765.53
2022-12-01T07:20:51.579Z,102763.78
2022-12-01T07:23:55.820Z,102771.63
2022-12-01T07:27:00.040Z,102771.63
2022-12-01T07:30:05.386Z,102783.75
2022-12-01T07:33:09.649Z,102784.66
2022-12-01T07:36:15.369Z,102776.84
2022-12-01T07:39:19.747Z,102784.59
2022-12-01T07:42:24.117Z,102787.25
2022-12-01T07:45:28.458Z,102784.66
2022-12-01T07:48:32.902Z,102791.53
2022-12-01T07:51:37.274Z,102790.69
2022-12-01T07:54:41.778Z,102795.06
2022-12-01T07:57:45.993Z,102790.69
2022-12-01T08:00:50.344Z,102793.31
2022-12-01T08:03:57.957Z,102791.59
2022-12-01T08:07:03.279Z,102789.03
2022-12-01T08:10:08.283Z,102797.75
2022-12-01T08:13:17.157Z,102798.66
2022-12-01T08:16:24.275Z,102799.50
2022-12-01T08:19:29.372Z,102796.91
2022-12-01T08:22:33.568Z,102801.25
2022-12-01T08:25:38.066Z,102802.13
2022-12-01T08:28:43.606Z,102795.16
2022-12-01T08:31:48.717Z,102800.41
2022-12-01T08:34:53.867Z,102801.25
2022-12-01T08:37:58.620Z,102804.69
2022-12-01T08:41:09.160Z,102801.25
2022-12-01T08:44:13.687Z,102806.44
2022-12-01T08:47:19.035Z,102805.53
2022-12-01T08:50:23.771Z,102815.97
2022-12-01T08:53:28.339Z,102803.81
2022-12-01T08:56:41.845Z,102807.31
2022-12-01T08:59:47.046Z,102808.19
2022-12-01T09:02:51.877Z,102799.53
2022-12-01T09:06:03.434Z,102801.31
2022-12-01T09:09:11.397Z,102807.38
2022-12-01T09:12:16.118Z,102805.56
2022-12-01T09:15:20.776Z,102805.63
2022-12-01T09:18:25.798Z,102810.00
2022-12-01T09:21:32.785Z,102801.31
2022-12-01T09:24:37.908Z,102811.75
2022-12-01T09:27:43.412Z,102817.00
2022-12-01T09:30:47.991Z,102815.22
2022-12-01T09:34:04.028Z,102818.69
2022-12-01T09:37:08.604Z,102816.09
2022-12-01T09:40:15.662Z,102822.16
2022-12-01T09:43:32.988Z,102817.78
2022-12-01T09:47:04.448Z,102819.47
2022-12-01T09:50:24.022Z,102809.03
2022-12-01T09:53:29.664Z,102812.50
2022-12-01T09:56:46.465Z,102815.13
2022-12-01T09:59:52.646Z,102808.19
2022-12-01T10:03:17.911Z,102801.25
2022-12-01T10:06:36.248Z,102800.41
2022-12-01T10:09:57.536Z,102795.28
2022-12-01T10:13:02.406Z,102796.16
2022-12-01T10:16:15.814Z,102798.84
2022-12-01T10:20:05.878Z,102797.97
2022-12-01T10:23:43.850Z,102778.94
2022-12-01T10:27:36.050Z,102784.19
2022-12-01T10:30:52.115Z,102777.31
2022-12-01T10:34:14.507Z,102775.53
2022-12-01T10:37:24.475Z,102779.00
2022-12-01T10:40:29.730Z,102782.50
2022-12-01T10:43:46.413Z,102776.41
2022-12-01T10:46:55.718Z,102764.25
2022-12-01T10:50:00.735Z,102764.25
2022-12-01T10:53:05.252Z,102758.22
2022-12-01T10:56:20.280Z,102763.50
2022-12-01T11:00:01.230Z,102766.13
2022-12-01T11:03:06.627Z,102767.84
2022-12-01T11:06:11.948Z,102767.88
2022-12-01T11:09:26.639Z,102776.59
2022-12-01T11:12:33.025Z,102765.31
2022-12-01T11:15:51.760Z,102767.91
2022-12-01T11:19:28.581Z,102759.19
2022-12-01T11:22:36.479Z,102759.22
2022-12-01T11:25:41.370Z,102760.09
2022-12-01T11:29:00.436Z,102754.00
2022-12-01T11:32:18.402Z,102747.03
2022-12-01T11:35:32.001Z,102752.25
2022-12-01T11:38:36.446Z,102745.31
2022-12-01T11:41:42.656Z,102741.84
2022-12-01T11:45:16.752Z,102737.53
2022-12-01T11:48:29.924Z,102726.25
2022-12-01T11:51:39.129Z,102728.91
2022-12-01T11:55:22.920Z,102720.22
2022-12-01T11:58:27.483Z,102722.84
2022-12-01T12:01:56.233Z,102717.63
2022-12-01T12:05:25.687Z,102704.59
2022-12-01T12:08:47.686Z,102702.00
2022-12-01T12:12:28.752Z,102696.78
2022-12-01T12:16:00.791Z,102688.09
2022-12-01T12:19:34.248Z,102691.56
2022-12-01T12:24:02.054Z,102682.88
2022-12-01T12:27:19.312Z,102682.88
2022-12-01T12:30:34.192Z,102679.41
2022-12-01T12:34:22.362Z,102677.66
2022-12-01T12:37:49.877Z,102675.03
2022-12-01T12:41:08.505Z,102679.41
2022-12-01T12:44:39.260Z,102683.72
2022-12-01T12:48:11.915Z,102688.06
2022-12-01T12:51:39.228Z,102694.16
2022-12-01T12:55:02.398Z,102700.25
2022-12-01T12:58:24.009Z,102700.25
2022-12-01T13:01:57.631Z,102695.00
2022-12-01T13:05:49.234Z,102695.88
2022-12-01T13:09:02.803Z,102694.13
2022-12-01T13:12:31.293Z,102699.34
2022-12-01T13:15:37.318Z,102696.72
2022-12-01T13:18:49.537Z,102703.69
2022-12-01T13:21:54.970Z,102707.16
2022-12-01T13:24:59.462Z,102709.75
2022-12-01T13:28:13.197Z,102708.00
2022-12-01T13:31:20.385Z,102713.22
2022-12-01T13:34:42.088Z,102710.59
2022-12-01T13:37:47.071Z,102712.31
2022-12-01T13:41:11.759Z,102711.47
2022-12-01T13:44:24.694Z,102704.53
2022-12-01T13:47:47.094Z,102708.88
2022-12-01T13:51:02.090Z,102700.19
2022-12-01T13:54:30.435Z,102693.19
2022-12-01T13:58:11.222Z,102690.56
2022-12-01T14:01:22.717Z,102685.34
2022-12-01T14:04:29.079Z,102676.66
2022-12-01T14:07:38.267Z,102675.81
2022-12-01T14:11:06.834Z,102681.00
2022-12-01T14:14:26.261Z,102675.75
2022-12-01T14:17:38.080Z,102672.31
2022-12-01T14:20:48.715Z,102668.88
2022-12-01T14:24:06.434Z,102667.09
2022-12-01T14:27:12.144Z,102679.25
2022-12-01T14:30:48.085Z,102680.97
2022-12-01T14:34:12.128Z,102686.16
2022-12-01T14:37:26.231Z,102686.13
2022-12-01T14:40:31.225Z,102682.63
2022-12-01T14:43:57.089Z,102668.72
2022-12-01T14:47:12.708Z,102666.06
2022-12-01T14:50:49.366Z,102670.41
2022-12-01T14:53:57.178Z,102680.75
2022-12-01T14:57:06.842Z,102666.00
2022-12-01T15:00:19.144Z,102670.31
2022-12-01T15:03:30.541Z,102682.44
2022-12-01T15:06:38.039Z,102689.38
2022-12-01T15:10:01.839Z,102680.66
2022-12-01T15:13:54.501Z,102682.38
2022-12-01T15:16:59.644Z,102681.50
2022-12-01T15:20:24.951Z,102675.47
2022-12-01T15:23:29.658Z,102676.31
2022-12-01T15:26:47.814Z,102672.84
2022-12-01T15:29:52.745Z,102688.44
2022-12-01T15:32:58.438Z,102695.38
2022-12-01T15:36:03.593Z,102692.75
2022-12-01T15:39:18.272Z,102689.28
2022-12-01T15:42:38.268Z,102689.31
2022-12-01T15:45:50.907Z,102695.38
2022-12-01T15:49:27.393Z,102701.44
2022-12-01T15:52:43.663Z,102700.56
2022-12-01T15:55:54.115Z,102700.50
2022-12-01T15:59:41.530Z,102698.00
2022-12-01T16:02:57.592Z,102705.84
2022-12-01T16:06:02.343Z,102701.44
2022-12-01T16:09:25.229Z,102704.94
2022-12-01T16:12:33.810Z,102706.66
2022-12-01T16:15:44.030Z,102707.50
2022-12-01T16:18:55.878Z,102705.75
2022-12-01T16:22:11.480Z,102704.06
2022-12-01T16:25:33.965Z,102706.59
2022-12-01T16:28:40.905Z,102699.63
2022-12-01T16:32:12.590Z,102700.47
2022-12-01T16:35:23.433Z,102710.03
2022-12-01T16:38:29.088Z,102705.63
2022-12-01T16:41:38.431Z,102709.09
2022-12-01T16:44:45.632Z,102713.41
2022-12-01T16:47:50.400Z,102712.59
2022-12-01T16:50:55.482Z,102716.06
2022-12-01T16:54:00.673Z,102722.97
2022-12-01T16:57:05.051Z,102722.06
2022-12-01T17:00:10.955Z,102721.19
2022-12-01T17:03:17.538Z,102716.03
2022-12-01T17:06:22.754Z,102721.16
2022-12-01T17:09:27.598Z,102723.72
2022-12-01T17:12:32.641Z,102728.13
2022-12-01T17:15:46.251Z,102729.00
2022-12-01T17:18:51.010Z,102734.19
2022-12-01T17:21:57.018Z,102739.34
2022-12-01T17:25:03.094Z,102723.72
2022-12-01T17:28:08.316Z,102739.34
2022-12-01T17:31:13.844Z,102734.19
2022-12-01T17:34:18.474Z,102732.50
2022-12-01T17:37:22.832Z,102742.00
2022-12-01T17:40:27.064Z,102740.25
2022-12-01T17:43:33.156Z,102733.38
2022-12-01T17:46:38.589Z,102734.16
2022-12-01T17:49:43.313Z,102739.31
2022-12-01T17:52:47.528Z,102740.19
2022-12-01T17:55:51.863Z,102743.63
2022-12-01T17:58:56.085Z,102732.34
2022-12-01T18:02:00.592Z,102728.88
2022-12-01T18:05:05.665Z,102735.78
2022-12-01T18:08:10.216Z,102740.19
2022-12-01T18:11:16.891Z,102737.50
2022-12-01T18:14:21.477Z,102732.28
2022-12-01T18:17:26.709Z,102735.75
2022-12-01T18:20:31.387Z,102736.69
2022-12-01T18:23:37.024Z,102744.44
2022-12-01T18:26:41.580Z,102734.94
2022-12-01T18:29:45.765Z,102744.47
2022-12-01T18:32:49.981Z,102741.84
2022-12-01T18:35:54.309Z,102749.66
2022-12-01T18:39:00.976Z,102747.88
2022-12-01T18:42:05.654Z,102758.28
2022-12-01T18:45:10.475Z,102759.97
2022-12-01T18:48:14.555Z,102759.97
2022-12-01T18:51:20.694Z,102754.84
2022-12-01T18:54:25.546Z,102756.53
2022-12-01T18:57:30.623Z,102756.53
2022-12-01T19:00:35.873Z,102760.88
2022-12-01T19:03:40.623Z,102759.13
2022-12-01T19:06:46.694Z,102763.47
2022-12-01T19:09:51.313Z,102760.06
2022-12-01T19:12:56.171Z,102755.75
2022-12-01T19:16:07.773Z,102759.16
2022-12-01T19:19:12.594Z,102756.53
2022-12-01T19:22:16.880Z,102749.66
2022-12-01T19:25:21.429Z,102755.69
2022-12-01T19:28:25.634Z,102747.97
2022-12-01T19:31:30.006Z,102744.47
2022-12-01T19:34:34.658Z,102740.97
2022-12-01T19:37:39.388Z,102740.19
2022-12-01T19:40:43.934Z,102744.56
2022-12-01T19:43:48.657Z,102736.81
2022-12-01T19:46:52.965Z,102737.63
2022-12-01T19:49:57.350Z,102736.72
2022-12-01T19:53:03.073Z,102738.41
2022-12-01T19:56:08.316Z,102731.50
2022-12-01T19:59:14.890Z,102737.63
2022-12-01T20:02:22.955Z,102733.25
2022-12-01T20:05:33.089Z,102736.72
2022-12-01T20:08:38.524Z,102728.09
2022-12-01T20:11:43.070Z,102728.97
2022-12-01T20:14:47.963Z,102722.81
2022-12-01T20:17:53.780Z,102727.94
2022-12-01T20:21:20.607Z,102727.13
2022-12-01T20:24:25.378Z,102726.28
2022-12-01T20:27:29.854Z,102727.16
2022-12-01T20:30:34.011Z,102723.63
2022-12-01T20:33:40.282Z,102723.66
2022-12-01T20:36:45.345Z,102721.03
2022-12-01T20:39:49.734Z,102723.66
2022-12-01T20:42:54.445Z,102721.94
2022-12-01T20:45:58.983Z,102722.78
2022-12-01T20:49:04.080Z,102727.97
2022-12-01T20:52:08.698Z,102721.88
2022-12-01T20:55:12.965Z,102728.84
2022-12-01T20:58:33.205Z,102728.84
2022-12-01T21:01:40.647Z,102726.28
2022-12-01T21:04:45.078Z,102730.59
2022-12-01T21:07:49.689Z,102724.56
2022-12-01T21:10:54.432Z,102726.28
2022-12-01T21:13:59.377Z,102729.78
2022-12-01T21:18:20.730Z,102732.44
2022-12-01T21:21:29.650Z,102741.06
2022-12-01T21:24:38.004Z,102730.63
2022-12-01T21:27:48.749Z,102724.53
2022-12-01T21:31:10.334Z,102722.75
2022-12-01T21:34:24.521Z,102726.25
2022-12-01T21:37:29.216Z,102720.13
2022-12-01T21:40:33.756Z,102717.53
2022-12-01T21:43:38.712Z,102716.72
2022-12-01T21:46:44.753Z,102714.91
2022-12-01T21:49:56.386Z,102721.88
2022-12-01T21:53:01.204Z,102723.59
2022-12-01T21:56:08.004Z,102721.81
2022-12-01T21:59:23.759Z,102711.44
2022-12-01T22:02:49.617Z,102716.59
2022-12-01T22:09:38.831Z,102704.44
2022-12-01T22:12:43.384Z,102707.03
2022-12-01T22:15:47.664Z,102699.25
2022-12-01T22:19:00.646Z,102700.97
2022-12-01T22:22:11.325Z,102696.59
2022-12-01T22:25:27.413Z,102687.91
2022-12-01T22:28:31.830Z,102696.53
2022-12-01T22:31:36.231Z,102690.44
2022-12-01T22:34:55.037Z,102686.16
2022-12-01T22:38:08.767Z,102688.69
2022-12-01T22:41:20.877Z,102695.59
2022-12-01T22:44:27.804Z,102693.88
2022-12-01T22:47:33.174Z,102686.97
2022-12-01T22:50:37.647Z,102683.44
2022-12-01T22:53:45.353Z,102695.56
2022-12-01T22:57:35.116Z,102690.34
2022-12-01T23:00:39.992Z,102685.13
2022-12-01T23:03:44.536Z,102679.00
2022-12-01T23:06:54.676Z,102681.56
2022-12-01T23:10:30.895Z,102678.06
2022-12-01T23:13:35.241Z,102678.09
2022-12-01T23:16:40.479Z,102679.84
2022-12-01T23:19:45.370Z,102667.63
2022-12-01T23:22:55.666Z,102667.59
2022-12-01T23:26:03.775Z,102661.53
2022-12-01T23:29:08.166Z,102665.88
2022-12-01T23:32:12.946Z,102676.28
2022-12-01T23:35:18.640Z,102670.22
2022-12-01T23:38:29.307Z,102675.34
2022-12-01T23:41:44.797Z,102672.75
2022-12-01T23:44:49.696Z,102671.91
2022-12-01T23:47:56.611Z,102663.16
2022-12-01T23:51:01.625Z,102662.31
2022-12-01T23:54:26.926Z,102665.69
2022-12-01T23:57:31.675Z,102665.72
